Time;durP1;ratioP1;P1;durP2;ratioP2;P2;SDS_P1;SDS_P2;PMS_P1;PMS_P2;Temp;Humidity;BMP_temperature;BMP_pressure;BME280_temperature;BME280_humidity;BME280_pressure;Samples;Min_cycle;Max_cycle;Signal;HPM_P1;HPM_P2
2022/10/05 00:02:12;;;;;;;1.10;0.82;;;15.30;99.90;;;;;;4988265;28;20054;-75
2022/10/05 00:04:37;;;;;;;0.30;0.30;;;15.60;99.90;;;;;;4988626;28;20149;-76
2022/10/05 00:07:12;;;;;;;0.20;0.20;;;15.20;99.90;;;;;;4989187;28;20054;-76
2022/10/05 00:09:38;;;;;;;0.38;0.30;;;15.20;99.90;;;;;;4991234;28;20513;-75
2022/10/05 00:12:14;;;;;;;1.50;1.17;;;15.10;99.90;;;;;;4990781;28;20046;-75
2022/10/05 00:14:40;;;;;;;1.05;0.55;;;15.10;1.00;;;;;;4991681;28;20046;-74
2022/10/05 00:17:09;;;;;;;4.45;1.63;;;15.60;99.90;;;;;;4991633;28;20050;-76
2022/10/05 00:19:37;;;;;;;1.25;1.00;;;15.30;99.90;;;;;;4992886;28;20048;-76
2022/10/05 00:22:12;;;;;;;0.28;0.28;;;15.20;99.90;;;;;;4991457;28;20034;-75
2022/10/05 00:24:38;;;;;;;0.88;0.70;;;15.30;99.90;;;;;;4991570;28;20061;-75
2022/10/05 00:27:19;;;;;;;0.63;0.47;;;15.10;99.90;;;;;;4991636;28;20137;-76
2022/10/05 00:29:46;;;;;;;0.20;0.20;;;15.20;99.90;;;;;;4993093;28;20074;-75
2022/10/05 00:32:12;;;;;;;1.40;0.98;;;15.30;99.90;;;;;;4991323;28;20046;-76
2022/10/05 00:34:38;;;;;;;2.05;1.52;;;15.10;99.90;;;;;;4990998;28;20049;-76
2022/10/05 00:37:05;;;;;;;0.28;0.28;;;15.10;99.90;;;;;;4992002;28;20042;-75
2022/10/05 00:39:31;;;;;;;0.43;0.32;;;15.10;1.00;;;;;;4992623;28;20065;-76
2022/10/05 00:42:31;;;;;;;2.55;1.15;;;15.10;99.90;;;;;;4992960;28;20604;-75
2022/10/05 00:45:02;;;;;;;15.10;1.52;;;15.10;99.90;;;;;;5002911;28;20064;-76
2022/10/05 00:47:50;;;;;;;1.45;0.55;;;15.10;99.90;;;;;;4991831;28;20074;-76
2022/10/05 00:50:22;;;;;;;1.65;1.20;;;15.20;99.90;;;;;;4991331;28;20061;-77
2022/10/05 00:52:58;;;;;;;0.55;0.50;;;15.10;99.90;;;;;;4991142;28;20050;-75
2022/10/05 00:56:02;;;;;;;1.50;0.93;;;15.10;99.90;;;;;;4989897;28;20473;-75
2022/10/05 00:58:32;;;;;;;7.38;2.03;;;15.20;99.90;;;;;;4991227;28;20046;-75
2022/10/05 01:01:10;;;;;;;2.38;0.50;;;15.20;99.90;;;;;;4991422;28;20050;-75
2022/10/05 01:04:03;;;;;;;0.00;0.00;;;15.10;99.90;;;;;;4991578;28;20544;-75
2022/10/05 01:06:32;;;;;;;0.25;0.10;;;15.10;99.90;;;;;;4990470;28;20086;-75
2022/10/05 01:09:44;;;;;;;0.40;0.30;;;15.10;99.90;;;;;;4992392;28;20093;-77
2022/10/05 01:12:22;;;;;;;0.10;0.10;;;15.00;99.90;;;;;;4987355;28;20054;-75
2022/10/05 01:15:08;;;;;;;0.35;0.28;;;15.10;99.90;;;;;;4990574;28;20460;-75
2022/10/05 01:17:54;;;;;;;0.82;0.70;;;15.00;99.90;;;;;;4990891;28;20050;-75
2022/10/05 01:20:34;;;;;;;0.75;0.75;;;15.00;99.90;;;;;;4990275;28;20060;-76
2022/10/05 01:23:03;;;;;;;1.15;0.50;;;15.00;1.00;;;;;;4989773;28;20058;-75
2022/10/05 01:25:53;;;;;;;0.25;0.20;;;14.90;1.00;;;;;;4989297;28;20050;-75
2022/10/05 01:28:22;;;;;;;0.50;0.20;;;14.80;1.00;;;;;;4989907;28;20057;-75
2022/10/05 01:31:01;;;;;;;0.05;0.05;;;14.80;1.00;;;;;;4989840;28;20042;-75
2022/10/05 01:33:47;;;;;;;0.55;0.55;;;14.70;1.00;;;;;;4989685;28;20101;-75
2022/10/05 01:36:24;;;;;;;;;;;14.70;1.00;;;;;;4990772;28;20060;-75
2022/10/05 01:38:56;;;;;;;1.08;0.80;;;14.70;1.00;;;;;;4990379;28;19981;-75
2022/10/05 01:41:30;;;;;;;1.13;0.45;;;14.70;1.00;;;;;;4990892;28;20054;-75
2022/10/05 01:44:08;;;;;;;0.73;0.60;;;14.70;1.00;;;;;;4990099;28;20078;-75
2022/10/05 01:46:59;;;;;;;0.30;0.30;;;14.70;1.00;;;;;;4991082;28;20114;-77
2022/10/05 01:49:40;;;;;;;0.82;0.45;;;14.60;17.10;;;;;;4991900;28;20502;-75
2022/10/05 01:52:18;;;;;;;3.40;1.20;;;14.70;3.50;;;;;;4992463;28;20106;-75
2022/10/05 01:55:10;;;;;;;0.30;0.30;;;14.60;21.70;;;;;;4992133;28;20050;-75
2022/10/05 01:57:54;;;;;;;0.30;0.30;;;14.70;1.00;;;;;;4991853;28;20057;-74
2022/10/05 02:00:20;;;;;;;0.40;0.40;;;14.70;1.70;;;;;;4994578;28;20047;-76
2022/10/05 02:02:55;;;;;;;2.92;0.50;;;14.80;1.00;;;;;;4993141;28;20042;-75
2022/10/05 02:05:29;;;;;;;2.15;0.90;;;14.80;1.00;;;;;;4993729;28;20133;-76
2022/10/05 02:08:13;;;;;;;0.32;0.13;;;14.80;1.00;;;;;;4991704;28;20123;-77
2022/10/05 02:11:13;;;;;;;1.38;0.43;;;14.80;1.00;;;;;;4991976;28;20042;-77
2022/10/05 02:13:44;;;;;;;0.10;0.10;;;15.20;1.00;;;;;;4938543;28;20057;-76
2022/10/05 02:16:17;;;;;;;0.28;0.22;;;14.90;1.00;;;;;;4990208;28;20054;-76
2022/10/05 02:19:07;;;;;;;8.70;1.80;;;15.10;1.00;;;;;;4990585;28;20065;-74
2022/10/05 02:21:35;;;;;;;0.20;0.20;;;14.90;1.00;;;;;;4989584;28;20092;-76
2022/10/05 02:24:05;;;;;;;0.20;0.20;;;14.80;1.00;;;;;;4990111;28;20053;-76
2022/10/05 02:26:33;;;;;;;1.05;0.90;;;14.90;1.00;;;;;;4991624;28;20073;-76
2022/10/05 02:29:02;;;;;;;1.70;1.25;;;14.90;1.00;;;;;;4991396;28;20173;-76
2022/10/05 02:31:38;;;;;;;0.55;0.55;;;14.90;1.00;;;;;;4991895;28;20425;-74
2022/10/05 02:34:24;;;;;;;0.47;0.47;;;14.90;1.00;;;;;;4992727;28;20062;-76
2022/10/05 02:36:57;;;;;;;2.10;1.10;;;14.80;1.00;;;;;;4988906;28;20077;-77
2022/10/05 02:39:58;;;;;;;0.15;0.13;;;14.80;1.00;;;;;;4992029;28;20290;-77
2022/10/05 02:42:48;;;;;;;0.20;0.20;;;14.80;5.10;;;;;;4977829;28;20054;-76
2022/10/05 02:45:26;;;;;;;0.40;0.40;;;14.80;1.00;;;;;;4986809;28;20062;-78
2022/10/05 02:48:02;;;;;;;0.10;0.10;;;14.80;34.90;;;;;;5012782;28;20069;-76
2022/10/05 02:50:42;;;;;;;1.35;0.30;;;14.80;13.50;;;;;;5011877;28;20486;-77
2022/10/05 02:53:53;;;;;;;1.02;0.85;;;14.90;6.00;;;;;;5011464;28;20100;-77
2022/10/05 02:56:36;;;;;;;2.75;0.60;;;14.80;21.80;;;;;;4949810;29;20303;-76
2022/10/05 02:59:15;;;;;;;1.55;1.08;;;14.90;2.20;;;;;;4950992;29;20047;-77
2022/10/05 03:01:49;;;;;;;1.10;0.73;;;14.90;8.40;;;;;;4990912;28;20053;-76
2022/10/05 03:04:23;;;;;;;1.33;1.23;;;14.80;19.30;;;;;;5010936;28;20088;-75
2022/10/05 03:07:06;;;;;;;2.17;1.15;;;14.90;8.30;;;;;;5009873;28;20053;-76
2022/10/05 03:09:40;;;;;;;0.40;0.30;;;14.90;1.00;;;;;;5011356;28;20477;-75
2022/10/05 03:12:21;;;;;;;0.88;0.25;;;14.90;1.20;;;;;;5011253;28;20033;-76
2022/10/05 03:15:09;;;;;;;1.45;1.05;;;14.90;14.70;;;;;;5010595;28;20076;-76
2022/10/05 03:18:28;;;;;;;0.28;0.28;;;14.80;30.50;;;;;;5011349;28;20038;-77
2022/10/05 03:21:18;;;;;;;0.43;0.40;;;14.80;27.20;;;;;;4915540;29;20052;-77
2022/10/05 03:24:00;;;;;;;0.43;0.43;;;14.80;39.10;;;;;;4914679;29;20099;-77
2022/10/05 03:27:03;;;;;;;0.93;0.75;;;14.80;55.50;;;;;;4998712;28;20062;-76
2022/10/05 03:29:48;;;;;;;0.73;0.65;;;14.80;48.20;;;;;;4991521;28;20050;-77
2022/10/05 03:32:23;;;;;;;1.00;0.90;;;14.80;41.90;;;;;;4991352;28;20077;-76
2022/10/05 03:35:00;;;;;;;2.53;1.35;;;14.80;31.30;;;;;;5004601;28;20049;-76
2022/10/05 03:37:51;;;;;;;0.10;0.08;;;14.80;46.90;;;;;;5009890;28;20057;-75
2022/10/05 03:40:43;;;;;;;0.00;0.00;;;14.70;55.00;;;;;;5009232;28;20937;-76
2022/10/05 03:43:43;;;;;;;1.92;0.40;;;14.70;53.60;;;;;;5009376;28;20072;-75
2022/10/05 03:46:28;;;;;;;0.30;0.30;;;14.70;47.40;;;;;;4984925;28;20054;-77
2022/10/05 03:49:32;;;;;;;0.20;0.20;;;14.70;35.70;;;;;;4978503;28;20065;-76
2022/10/05 03:52:06;;;;;;;0.63;0.60;;;14.80;30.60;;;;;;4955776;28;20105;-77
2022/10/05 03:54:38;;;;;;;1.55;0.73;;;14.80;1.00;;;;;;4976506;28;20074;-76
2022/10/05 03:57:26;;;;;;;0.68;0.52;;;14.80;1.00;;;;;;4976331;28;20077;-76
2022/10/05 03:59:54;;;;;;;0.60;0.60;;;14.80;1.00;;;;;;4975909;28;20051;-76
2022/10/05 04:02:28;;;;;;;0.20;0.20;;;14.80;1.00;;;;;;4980211;28;21184;-76
2022/10/05 04:05:12;;;;;;;1.45;0.75;;;14.80;1.00;;;;;;4984496;28;20502;-76
2022/10/05 04:07:45;;;;;;;0.98;0.47;;;14.80;1.00;;;;;;4979661;28;20094;-75
2022/10/05 04:10:20;;;;;;;0.80;0.80;;;14.80;1.00;;;;;;4976548;28;20046;-76
2022/10/05 04:13:09;;;;;;;0.65;0.60;;;14.80;1.00;;;;;;4983500;28;20526;-76
2022/10/05 04:15:45;;;;;;;0.43;0.43;;;14.80;1.00;;;;;;4971001;28;20079;-77
2022/10/05 04:18:27;;;;;;;1.48;0.65;;;14.80;1.00;;;;;;4978204;28;20061;-75
2022/10/05 04:21:01;;;;;;;3.88;1.33;;;14.80;1.00;;;;;;4988953;28;20107;-75
2022/10/05 04:23:33;;;;;;;0.68;0.68;;;14.80;1.00;;;;;;4988607;28;20053;-76
2022/10/05 04:26:14;;;;;;;0.93;0.47;;;14.80;1.00;;;;;;4989482;28;20050;-75
2022/10/05 04:29:00;;;;;;;0.20;0.20;;;14.80;1.00;;;;;;4972361;28;20047;-76
2022/10/05 04:31:50;;;;;;;0.85;0.85;;;14.70;1.00;;;;;;4989851;28;20038;-75
2022/10/05 04:34:42;;;;;;;0.43;0.25;;;14.80;1.00;;;;;;4988707;28;20054;-75
2022/10/05 04:37:18;;;;;;;3.67;0.93;;;14.80;1.00;;;;;;4988837;28;20161;-76
2022/10/05 04:40:30;;;;;;;0.05;0.05;;;14.70;1.00;;;;;;4988168;28;20401;-77
2022/10/05 04:43:08;;;;;;;0.30;0.30;;;14.80;1.00;;;;;;4988436;28;20046;-75
2022/10/05 04:45:53;;;;;;;0.20;0.20;;;14.80;1.00;;;;;;4987769;28;20067;-76
2022/10/05 04:48:40;;;;;;;0.10;0.10;;;14.90;1.00;;;;;;4986704;28;20046;-75
2022/10/05 04:51:36;;;;;;;0.13;0.13;;;14.80;1.00;;;;;;4984780;28;20085;-76
2022/10/05 04:54:30;;;;;;;1.27;1.00;;;14.80;1.00;;;;;;4985271;28;20054;-75
2022/10/05 04:57:05;;;;;;;0.40;0.32;;;14.90;1.00;;;;;;4983046;28;20306;-75
2022/10/05 04:59:58;;;;;;;1.25;0.70;;;14.80;1.00;;;;;;4987616;28;20057;-75
2022/10/05 05:02:43;;;;;;;0.65;0.63;;;14.70;1.00;;;;;;4987677;28;20042;-75
2022/10/05 05:05:20;;;;;;;1.42;0.95;;;14.80;1.00;;;;;;4986578;28;20054;-76
2022/10/05 05:07:49;;;;;;;0.85;0.60;;;14.70;1.00;;;;;;4990067;28;20054;-76
2022/10/05 05:10:40;;;;;;;5.47;0.93;;;14.80;1.00;;;;;;4988513;28;20057;-75
2022/10/05 05:13:24;;;;;;;0.30;0.30;;;14.80;1.00;;;;;;4974372;28;20639;-75
2022/10/05 05:16:09;;;;;;;0.60;0.50;;;14.70;1.00;;;;;;4987720;28;20058;-75
2022/10/05 05:18:46;;;;;;;1.08;0.90;;;14.80;1.00;;;;;;4970475;28;20046;-76
2022/10/05 05:21:20;;;;;;;2.90;0.85;;;14.90;1.00;;;;;;4989382;28;20058;-76
2022/10/05 05:24:19;;;;;;;0.38;0.38;;;14.70;1.00;;;;;;4987821;28;20057;-77
2022/10/05 05:27:00;;;;;;;4.70;1.05;;;14.80;1.00;;;;;;4972560;28;20132;-75
2022/10/05 05:29:58;;;;;;;0.73;0.35;;;14.70;1.00;;;;;;4988726;28;20058;-75
2022/10/05 05:32:42;;;;;;;1.75;0.80;;;14.70;1.00;;;;;;4990574;28;20106;-75
2022/10/05 05:35:17;;;;;;;0.20;0.20;;;14.70;1.00;;;;;;4989628;28;20136;-75
2022/10/05 05:38:13;;;;;;;0.60;0.28;;;14.70;1.00;;;;;;4990441;28;20154;-76
2022/10/05 05:40:50;;;;;;;3.35;1.00;;;14.70;1.00;;;;;;4989636;28;20058;-75
2022/10/05 05:43:37;;;;;;;0.50;0.50;;;14.70;1.00;;;;;;4989509;28;20061;-74
2022/10/05 05:46:14;;;;;;;0.35;0.35;;;14.80;1.00;;;;;;4990867;28;20058;-75
2022/10/05 05:48:46;;;;;;;0.75;0.73;;;14.70;1.00;;;;;;4990815;28;20049;-74
2022/10/05 05:51:31;;;;;;;2.95;0.35;;;14.70;1.00;;;;;;4990975;28;20046;-76
2022/10/05 05:54:17;;;;;;;0.88;0.80;;;14.70;1.00;;;;;;4989836;28;20042;-76
2022/10/05 05:56:54;;;;;;;0.20;0.20;;;14.70;1.00;;;;;;4990584;28;20072;-75
2022/10/05 05:59:53;;;;;;;0.95;0.43;;;14.80;99.90;;;;;;4989986;28;20181;-75
2022/10/05 06:02:27;;;;;;;1.48;0.32;;;14.80;99.90;;;;;;4989837;28;20046;-74
2022/10/05 06:05:37;;;;;;;0.77;0.65;;;14.70;1.00;;;;;;4989158;28;20137;-76
2022/10/05 06:08:21;;;;;;;0.00;0.00;;;14.70;99.90;;;;;;4989864;28;20050;-76
2022/10/05 06:10:52;;;;;;;0.52;0.38;;;14.70;1.00;;;;;;4990878;28;20053;-76
2022/10/05 06:13:27;;;;;;;0.25;0.25;;;14.80;1.00;;;;;;4990337;28;20493;-76
2022/10/05 06:16:14;;;;;;;0.03;0.03;;;14.80;1.00;;;;;;4989434;28;20050;-76
2022/10/05 06:18:44;;;;;;;0.00;0.00;;;14.80;99.90;;;;;;4989692;28;20070;-76
2022/10/05 06:21:21;;;;;;;0.20;0.20;;;14.80;99.90;;;;;;4989883;28;20838;-75
2022/10/05 06:23:51;;;;;;;0.65;0.57;;;14.80;99.90;;;;;;4989033;28;20133;-75
2022/10/05 06:26:38;;;;;;;0.45;0.45;;;14.90;99.90;;;;;;4990569;28;20635;-76
2022/10/05 06:29:19;;;;;;;0.73;0.57;;;14.80;99.90;;;;;;4988982;28;20062;-77
2022/10/05 06:32:30;;;;;;;0.25;0.25;;;14.90;99.90;;;;;;4989800;28;20050;-75
2022/10/05 06:35:14;;;;;;;1.20;0.85;;;14.90;99.90;;;;;;4950156;28;20078;-75
2022/10/05 06:38:01;;;;;;;1.48;1.23;;;15.00;99.90;;;;;;4987690;28;20081;-76
2022/10/05 06:40:58;;;;;;;2.47;0.98;;;15.00;99.90;;;;;;4987598;28;20056;-76
2022/10/05 06:43:38;;;;;;;0.20;0.20;;;14.90;99.90;;;;;;4955123;28;20045;-75
2022/10/05 06:46:30;;;;;;;0.35;0.28;;;15.00;99.90;;;;;;4988619;28;20078;-76
2022/10/05 06:49:17;;;;;;;2.95;1.85;;;15.10;99.90;;;;;;4987756;28;20054;-76
2022/10/05 06:52:04;;;;;;;3.00;1.00;;;15.00;99.90;;;;;;4988697;28;20792;-75
2022/10/05 06:55:07;;;;;;;1.00;0.70;;;15.00;99.90;;;;;;4970780;28;20056;-75
2022/10/05 06:57:51;;;;;;;0.60;0.43;;;15.00;99.90;;;;;;4988568;28;20070;-75
2022/10/05 07:00:23;;;;;;;5.07;1.08;;;15.50;99.90;;;;;;4987919;28;20629;-75
2022/10/05 07:03:25;;;;;;;1.08;0.57;;;15.10;99.90;;;;;;4971653;28;20142;-77
2022/10/05 07:06:05;;;;;;;1.00;0.52;;;15.00;99.90;;;;;;4988105;28;20094;-76
2022/10/05 07:09:02;;;;;;;0.10;0.10;;;15.00;99.90;;;;;;4988522;28;20042;-76
2022/10/05 07:11:48;;;;;;;0.98;0.73;;;15.00;99.90;;;;;;4987003;28;20046;-76
2022/10/05 07:14:34;;;;;;;0.77;0.68;;;15.00;99.90;;;;;;4988964;28;20138;-76
2022/10/05 07:17:22;;;;;;;0.40;0.40;;;15.10;99.90;;;;;;4970533;28;20591;-75
2022/10/05 07:20:06;;;;;;;0.60;0.60;;;15.00;99.90;;;;;;4988728;28;20046;-76
2022/10/05 07:22:50;;;;;;;0.30;0.30;;;15.10;99.90;;;;;;4988816;28;20050;-76
2022/10/05 07:25:37;;;;;;;0.85;0.75;;;15.20;99.90;;;;;;4989916;28;20046;-76
2022/10/05 07:28:20;;;;;;;0.73;0.45;;;15.20;99.40;;;;;;4986432;28;20070;-78
2022/10/05 07:31:10;;;;;;;0.73;0.73;;;15.30;1.00;;;;;;4979846;28;20418;-75
2022/10/05 07:34:14;;;;;;;0.70;0.57;;;15.30;1.00;;;;;;4986237;28;20050;-76
2022/10/05 07:40:13;;;;;;;0.20;0.20;;;15.30;1.00;;;;;;4969704;28;20459;-75
2022/10/05 07:43:17;;;;;;;0.10;0.10;;;15.40;1.00;;;;;;4983413;28;20066;-77
2022/10/05 07:46:04;;;;;;;0.05;0.05;;;15.30;1.00;;;;;;4983653;28;20055;-76
2022/10/05 07:48:57;;;;;;;8.68;0.73;;;15.30;1.00;;;;;;4987642;28;20035;-77
2022/10/05 07:51:46;;;;;;;0.32;0.20;;;15.30;1.00;;;;;;4985549;28;20046;-75
2022/10/05 07:54:36;;;;;;;0.17;0.17;;;15.30;99.90;;;;;;4987464;28;20046;-76
2022/10/05 07:57:19;;;;;;;0.82;0.68;;;15.40;99.90;;;;;;4986709;28;20078;-76
2022/10/05 07:59:55;;;;;;;0.00;0.00;;;15.40;99.90;;;;;;4987047;28;20042;-76
2022/10/05 08:02:37;;;;;;;0.10;0.10;;;15.50;99.90;;;;;;4988337;28;20124;-76
2022/10/05 08:05:32;;;;;;;1.10;0.60;;;15.60;84.60;;;;;;4982862;28;20399;-76
2022/10/05 08:08:14;;;;;;;0.47;0.40;;;15.80;93.80;;;;;;4975484;28;20054;-75
2022/10/05 08:11:07;;;;;;;0.00;0.00;;;15.80;68.40;;;;;;4969981;28;20051;-76
2022/10/05 08:14:15;;;;;;;0.00;0.00;;;16.00;1.00;;;;;;4986964;28;20049;-78
2022/10/05 08:16:42;;;;;;;0.15;0.15;;;16.30;1.00;;;;;;4908428;29;20543;-75
2022/10/05 08:19:23;;;;;;;1.65;0.55;;;16.40;99.90;;;;;;4972795;28;20534;-76
2022/10/05 08:22:07;;;;;;;0.55;0.47;;;16.40;99.90;;;;;;4984795;28;20077;-76
2022/10/05 08:24:35;;;;;;;0.50;0.17;;;16.30;99.90;;;;;;4986328;28;20050;-77
2022/10/05 08:27:24;;;;;;;0.00;0.00;;;16.30;1.00;;;;;;4988154;28;20054;-77
2022/10/05 08:30:00;;;;;;;0.08;0.08;;;16.30;99.90;;;;;;4990631;28;20046;-76
2022/10/05 08:32:49;;;;;;;0.50;0.50;;;16.30;99.90;;;;;;4989510;28;20049;-76
2022/10/05 08:35:36;;;;;;;0.93;0.75;;;16.30;1.00;;;;;;4988187;28;20050;-78
2022/10/05 08:38:10;;;;;;;0.65;0.65;;;16.50;99.90;;;;;;4987269;28;20404;-76
2022/10/05 08:40:45;;;;;;;1.35;0.40;;;16.60;99.90;;;;;;4989552;28;20061;-76
2022/10/05 08:43:42;;;;;;;0.65;0.63;;;16.80;99.90;;;;;;4989081;28;20077;-76
2022/10/05 08:46:44;;;;;;;0.00;0.00;;;17.00;99.90;;;;;;4987838;28;20050;-77
2022/10/05 08:49:25;;;;;;;0.88;0.75;;;17.20;99.90;;;;;;4986101;28;20069;-77
2022/10/05 08:52:22;;;;;;;0.55;0.25;;;17.40;99.90;;;;;;4985501;28;20046;-78
2022/10/05 08:55:01;;;;;;;;;;;17.30;99.90;;;;;;4992249;28;20112;-76
2022/10/05 08:57:47;;;;;;;2.20;1.13;;;17.40;55.70;;;;;;4993177;28;19936;-75
2022/10/05 09:00:22;;;;;;;2.90;1.05;;;17.40;99.90;;;;;;4982326;28;20093;-75
2022/10/05 09:03:18;;;;;;;0.10;0.10;;;17.40;92.80;;;;;;4988036;28;20054;-75
2022/10/05 09:05:55;;;;;;;0.35;0.35;;;17.50;30.70;;;;;;4992447;28;20049;-77
2022/10/05 09:08:41;;;;;;;0.80;0.40;;;17.60;5.40;;;;;;4992798;28;20124;-78
2022/10/05 09:11:38;;;;;;;1.08;0.22;;;17.60;1.00;;;;;;4982923;28;20458;-76
2022/10/05 09:14:31;;;;;;;0.22;0.20;;;17.60;1.00;;;;;;4996013;28;20425;-75
2022/10/05 09:17:15;;;;;;;0.20;0.20;;;17.60;69.90;;;;;;4985567;28;20046;-75
2022/10/05 09:20:10;;;;;;;3.63;0.55;;;17.70;1.00;;;;;;4985093;28;20093;-76
2022/10/05 09:22:48;;;;;;;0.32;0.20;;;17.80;1.00;;;;;;4985026;28;20633;-77
2022/10/05 09:25:21;;;;;;;0.50;0.35;;;18.00;1.00;;;;;;4987701;28;20054;-77
2022/10/05 09:28:21;;;;;;;0.68;0.45;;;18.10;99.90;;;;;;4987928;28;20828;-77
2022/10/05 09:30:46;;;;;;;1.08;0.75;;;18.10;1.00;;;;;;4986449;28;20046;-76
2022/10/05 09:33:24;;;;;;;1.08;0.98;;;18.10;1.00;;;;;;4988273;28;20073;-76
2022/10/05 09:36:15;;;;;;;0.10;0.10;;;18.10;99.90;;;;;;4988823;28;20050;-75
2022/10/05 09:39:27;;;;;;;0.20;0.20;;;18.00;1.00;;;;;;4987260;28;20121;-77
2022/10/05 09:42:20;;;;;;;0.22;0.22;;;18.00;99.90;;;;;;4967769;28;20086;-75
2022/10/05 09:44:51;;;;;;;0.22;0.20;;;18.10;99.90;;;;;;4967659;28;20726;-78
2022/10/05 09:47:45;;;;;;;0.00;0.00;;;18.10;99.90;;;;;;4968439;28;20137;-77
2022/10/05 09:50:52;;;;;;;0.52;0.32;;;18.10;1.00;;;;;;4968561;28;20034;-76
2022/10/05 09:53:44;;;;;;;0.00;0.00;;;18.00;99.90;;;;;;4967572;28;20047;-77
2022/10/05 09:56:35;;;;;;;0.03;0.03;;;18.20;99.90;;;;;;4968634;28;20050;-78
2022/10/05 09:59:31;;;;;;;0.20;0.20;;;18.10;99.90;;;;;;4968180;28;20139;-75
2022/10/05 10:02:26;;;;;;;0.52;0.22;;;18.10;99.90;;;;;;4968172;28;20051;-77
2022/10/05 10:05:33;;;;;;;0.45;0.20;;;18.20;99.90;;;;;;4967686;28;20054;-76
2022/10/05 10:08:35;;;;;;;0.22;0.22;;;18.10;99.90;;;;;;4869856;29;20053;-78
2022/10/05 10:11:20;;;;;;;0.20;0.17;;;18.10;99.90;;;;;;4972926;28;20054;-75
2022/10/05 10:14:11;;;;;;;2.42;1.17;;;18.10;99.90;;;;;;4986429;28;20081;-77
2022/10/05 10:16:43;;;;;;;0.00;0.00;;;18.10;99.90;;;;;;4967806;28;20765;-77
2022/10/05 10:19:30;;;;;;;0.45;0.20;;;18.00;99.90;;;;;;4985914;28;20961;-76
2022/10/05 10:22:22;;;;;;;0.30;0.28;;;18.00;99.90;;;;;;4967748;28;20106;-77
2022/10/05 10:25:11;;;;;;;0.30;0.30;;;18.20;99.90;;;;;;4987073;28;20054;-78
2022/10/05 10:28:05;;;;;;;0.30;0.30;;;18.00;99.90;;;;;;4987427;28;20069;-76
2022/10/05 10:30:58;;;;;;;0.30;0.20;;;18.00;99.90;;;;;;4987569;28;20425;-78
2022/10/05 10:33:45;;;;;;;0.68;0.30;;;17.90;99.90;;;;;;4988091;28;20061;-77
2022/10/05 10:36:40;;;;;;;0.30;0.20;;;18.00;99.90;;;;;;4987305;28;20097;-78
2022/10/05 10:39:18;;;;;;;0.47;0.38;;;18.00;99.90;;;;;;4987574;28;20062;-78
2022/10/05 10:41:59;;;;;;;0.68;0.68;;;18.10;99.90;;;;;;4988174;28;20129;-78
2022/10/05 10:44:46;;;;;;;0.77;0.50;;;18.10;99.90;;;;;;4991555;28;20501;-78
2022/10/05 10:47:34;;;;;;;0.57;0.45;;;17.90;99.90;;;;;;4978674;28;20093;-77
2022/10/05 10:50:32;;;;;;;0.00;0.00;;;17.80;99.90;;;;;;4985561;28;20050;-76
2022/10/05 10:53:28;;;;;;;0.15;0.15;;;17.90;99.90;;;;;;4985755;28;20066;-76
2022/10/05 10:56:07;;;;;;;0.38;0.10;;;18.00;99.90;;;;;;4987637;28;20109;-78
2022/10/05 10:58:54;;;;;;;1.08;0.70;;;18.10;99.90;;;;;;4993482;28;20058;-77
2022/10/05 11:01:45;;;;;;;0.00;0.00;;;18.00;99.90;;;;;;5006828;28;20079;-78
2022/10/05 11:04:53;;;;;;;0.73;0.40;;;18.00;99.90;;;;;;4968581;28;20055;-77
2022/10/05 11:07:40;;;;;;;0.08;0.08;;;18.00;99.90;;;;;;4969616;28;20081;-77
2022/10/05 11:10:27;;;;;;;0.68;0.38;;;17.90;99.90;;;;;;4987860;28;20080;-76
2022/10/05 11:13:15;;;;;;;0.73;0.55;;;18.10;99.90;;;;;;4985278;28;20050;-77
2022/10/05 11:15:50;;;;;;;0.10;0.10;;;18.20;99.90;;;;;;4973916;28;20057;-77
2022/10/05 11:18:19;;;;;;;0.05;0.05;;;18.30;99.90;;;;;;4974625;28;20055;-78
2022/10/05 11:21:03;;;;;;;0.38;0.30;;;18.30;99.90;;;;;;4974959;28;20054;-77
2022/10/05 11:24:07;;;;;;;0.85;0.60;;;18.20;99.90;;;;;;4973511;28;20301;-79
2022/10/05 11:26:36;;;;;;;0.00;0.00;;;18.20;99.90;;;;;;4970809;28;20058;-77
2022/10/05 11:29:29;;;;;;;0.10;0.10;;;18.10;99.90;;;;;;4974173;28;20110;-75
2022/10/05 11:32:16;;;;;;;0.65;0.35;;;18.00;99.90;;;;;;4973057;28;20093;-76
2022/10/05 11:34:54;;;;;;;0.00;0.00;;;18.00;99.90;;;;;;4974456;28;20406;-76
2022/10/05 11:37:40;;;;;;;0.00;0.00;;;18.10;99.90;;;;;;4975060;28;20055;-77
2022/10/05 11:40:27;;;;;;;0.03;0.03;;;18.10;99.90;;;;;;4974006;28;20058;-76
2022/10/05 11:43:08;;;;;;;0.00;0.00;;;18.10;99.90;;;;;;4973847;28;20073;-76
2022/10/05 11:46:11;;;;;;;0.22;0.22;;;18.10;99.90;;;;;;4987482;28;20069;-76
2022/10/05 11:48:50;;;;;;;0.10;0.10;;;18.00;99.90;;;;;;4994196;28;20421;-76
2022/10/05 11:51:25;;;;;;;0.00;0.00;;;18.00;99.90;;;;;;4994700;28;20176;-76
2022/10/05 11:54:03;;;;;;;1.60;0.65;;;18.00;99.90;;;;;;4995708;28;20082;-76
2022/10/05 11:56:40;;;;;;;0.30;0.25;;;18.00;99.90;;;;;;4979007;28;20054;-76
2022/10/05 11:59:25;;;;;;;0.08;0.08;;;18.00;99.90;;;;;;4996687;28;20149;-76
2022/10/05 12:02:13;;;;;;;6.45;0.77;;;18.00;99.90;;;;;;4993984;28;20452;-76
2022/10/05 12:04:49;;;;;;;2.75;0.57;;;18.00;99.90;;;;;;4997277;28;20086;-74
2022/10/05 12:07:32;;;;;;;0.03;0.03;;;18.10;99.90;;;;;;4979214;28;20050;-76
2022/10/05 12:10:21;;;;;;;0.10;0.10;;;18.00;99.90;;;;;;4997209;28;20057;-76
2022/10/05 12:12:58;;;;;;;0.25;0.13;;;17.90;99.90;;;;;;4997583;28;20053;-76
2022/10/05 12:15:30;;;;;;;0.00;0.00;;;18.50;99.90;;;;;;4996885;28;20079;-76
2022/10/05 12:18:09;;;;;;;0.25;0.25;;;17.90;99.90;;;;;;4996813;28;20050;-77
2022/10/05 12:21:00;;;;;;;0.40;0.30;;;17.90;99.90;;;;;;4977763;28;20042;-76
2022/10/05 12:23:43;;;;;;;2.05;1.35;;;17.80;99.90;;;;;;4969883;28;20062;-77
2022/10/05 12:26:20;;;;;;;0.10;0.10;;;17.80;99.90;;;;;;4997747;28;20049;-76
2022/10/05 12:28:51;;;;;;;0.20;0.20;;;17.80;1.00;;;;;;4995596;28;20058;-76
2022/10/05 12:31:34;;;;;;;0.55;0.45;;;17.80;1.00;;;;;;4998739;28;20650;-76
2022/10/05 12:34:13;;;;;;;0.50;0.28;;;17.80;99.90;;;;;;4981313;28;20073;-76
2022/10/05 12:37:15;;;;;;;0.80;0.22;;;17.70;99.90;;;;;;4995591;28;20065;-76
2022/10/05 12:39:57;;;;;;;0.03;0.03;;;17.70;99.90;;;;;;4996444;28;20147;-76
2022/10/05 12:42:33;;;;;;;0.82;0.45;;;17.70;1.00;;;;;;4998527;28;20047;-76
2022/10/05 12:45:22;;;;;;;1.30;0.35;;;18.10;1.00;;;;;;4996751;28;20066;-76
2022/10/05 12:48:08;;;;;;;2.65;0.70;;;17.70;99.90;;;;;;4997251;28;20336;-76
2022/10/05 12:51:18;;;;;;;0.47;0.47;;;17.80;1.00;;;;;;4996139;28;20065;-77
2022/10/05 12:54:05;;;;;;;0.57;0.55;;;17.90;1.00;;;;;;4977805;28;20539;-76
2022/10/05 12:56:37;;;;;;;0.22;0.08;;;17.90;99.90;;;;;;4994866;28;20042;-76
2022/10/05 12:59:12;;;;;;;1.05;0.22;;;17.90;1.00;;;;;;4993327;28;20133;-75
2022/10/05 13:01:47;;;;;;;0.20;0.20;;;17.90;99.90;;;;;;4987922;28;20101;-76
2022/10/05 13:04:37;;;;;;;0.20;0.20;;;17.90;99.90;;;;;;4988025;28;20051;-76
2022/10/05 13:07:08;;;;;;;0.52;0.38;;;17.80;1.00;;;;;;4986001;28;20057;-77
2022/10/05 13:09:46;;;;;;;0.32;0.32;;;17.70;1.00;;;;;;4989367;28;20335;-77
2022/10/05 13:12:27;;;;;;;0.30;0.30;;;17.70;1.00;;;;;;4991939;28;20082;-75
2022/10/05 13:15:02;;;;;;;0.00;0.00;;;17.70;1.00;;;;;;4991722;28;20054;-76
2022/10/05 13:17:38;;;;;;;0.17;0.17;;;17.70;1.00;;;;;;4989080;28;20046;-76
2022/10/05 13:20:19;;;;;;;0.70;0.20;;;17.70;1.00;;;;;;4988294;28;20390;-75
2022/10/05 13:23:02;;;;;;;0.20;0.20;;;17.80;28.00;;;;;;4986941;28;20105;-75
2022/10/05 13:25:36;;;;;;;0.03;0.03;;;17.90;1.00;;;;;;4987550;28;20058;-77
2022/10/05 13:28:08;;;;;;;2.22;1.00;;;18.00;1.00;;;;;;4989514;28;20126;-77
2022/10/05 13:30:35;;;;;;;0.10;0.10;;;18.10;1.00;;;;;;4991675;28;20050;-75
2022/10/05 13:33:13;;;;;;;0.57;0.50;;;18.50;1.00;;;;;;4991302;28;20046;-77
2022/10/05 13:35:44;;;;;;;0.10;0.10;;;18.40;1.00;;;;;;4990819;28;20051;-75
2022/10/05 13:38:27;;;;;;;0.65;0.65;;;18.40;1.00;;;;;;4990843;28;20046;-75
2022/10/05 13:40:53;;;;;;;0.65;0.52;;;18.40;1.00;;;;;;4989515;28;20801;-75
2022/10/05 13:43:30;;;;;;;1.05;0.70;;;18.40;1.00;;;;;;4990282;28;20046;-74
2022/10/05 13:46:17;;;;;;;0.32;0.32;;;18.60;1.00;;;;;;4988918;28;20058;-76
2022/10/05 13:49:03;;;;;;;0.00;0.00;;;18.50;1.00;;;;;;4989361;28;20046;-75
2022/10/05 13:51:40;;;;;;;0.20;0.15;;;18.50;1.00;;;;;;4990165;28;20050;-75
2022/10/05 13:54:25;;;;;;;0.30;0.30;;;18.60;99.90;;;;;;4988441;28;20061;-75
2022/10/05 13:56:57;;;;;;;0.80;0.57;;;18.40;1.00;;;;;;4989848;28;20120;-76
2022/10/05 14:00:08;;;;;;;0.77;0.43;;;18.50;1.00;;;;;;4988311;28;20046;-75
2022/10/05 14:02:40;;;;;;;0.65;0.45;;;18.60;1.00;;;;;;4975827;28;20597;-75
2022/10/05 14:05:25;;;;;;;0.20;0.20;;;18.80;1.00;;;;;;4988998;28;20061;-76
2022/10/05 14:07:54;;;;;;;2.08;0.73;;;18.60;1.00;;;;;;4987853;28;20551;-75
2022/10/05 14:10:30;;;;;;;0.03;0.03;;;18.70;1.00;;;;;;4987442;28;20054;-75
2022/10/05 14:12:56;;;;;;;0.35;0.35;;;18.40;1.00;;;;;;4970169;28;20073;-75
2022/10/05 14:15:27;;;;;;;1.80;0.30;;;18.40;1.00;;;;;;4970846;28;20480;-75
2022/10/05 14:17:53;;;;;;;0.20;0.20;;;18.40;1.00;;;;;;4987061;28;20089;-75
2022/10/05 14:20:26;;;;;;;0.20;0.20;;;18.30;1.00;;;;;;4984370;28;20521;-76